sensor_id;sensor_type;location;lat;lon;timestamp;pressure;altitude;pressure_sealevel;temperature;humidity
6393;BME280;3229;42.674;23.282;2022-11-22T00:00:42;94094.56;;;10.70;69.56
6393;BME280;3229;42.674;23.282;2022-11-22T00:03:09;94082.91;;;10.67;69.44
6393;BME280;3229;42.674;23.282;2022-11-22T00:05:37;94087.22;;;10.67;69.34
6393;BME280;3229;42.674;23.282;2022-11-22T00:08:04;94085.47;;;10.67;69.20
6393;BME280;3229;42.674;23.282;2022-11-22T00:10:32;94087.69;;;10.70;69.26
6393;BME280;3229;42.674;23.282;2022-11-22T00:12:59;94094.56;;;10.70;69.17
6393;BME280;3229;42.674;23.282;2022-11-22T00:15:27;94105.59;;;10.70;69.05
6393;BME280;3229;42.674;23.282;2022-11-22T00:17:54;94101.31;;;10.71;69.18
6393;BME280;3229;42.674;23.282;2022-11-22T00:20:21;94099.03;;;10.68;69.09
6393;BME280;3229;42.674;23.282;2022-11-22T00:22:49;94108.00;;;10.72;69.23
6393;BME280;3229;42.674;23.282;2022-11-22T00:25:16;94101.94;;;10.73;68.91
6393;BME280;3229;42.674;23.282;2022-11-22T00:27:42;94107.84;;;10.73;69.07
6393;BME280;3229;42.674;23.282;2022-11-22T00:30:10;94102.56;;;10.75;69.09
6393;BME280;3229;42.674;23.282;2022-11-22T00:32:37;94098.28;;;10.75;69.10
6393;BME280;3229;42.674;23.282;2022-11-22T00:35:04;94092.69;;;10.72;68.93
6393;BME280;3229;42.674;23.282;2022-11-22T00:37:31;94081.66;;;10.71;69.04
6393;BME280;3229;42.674;23.282;2022-11-22T00:40:00;94097.16;;;10.78;68.83
6393;BME280;3229;42.674;23.282;2022-11-22T00:42:29;94087.41;;;10.73;69.09
6393;BME280;3229;42.674;23.282;2022-11-22T00:44:56;94088.19;;;10.74;68.79
6393;BME280;3229;42.674;23.282;2022-11-22T00:47:23;94093.31;;;10.74;68.83
6393;BME280;3229;42.674;23.282;2022-11-22T00:49:50;94097.97;;;10.78;68.92
6393;BME280;3229;42.674;23.282;2022-11-22T00:52:17;94078.44;;;10.69;68.90
6393;BME280;3229;42.674;23.282;2022-11-22T00:54:44;94068.16;;;10.61;68.84
6393;BME280;3229;42.674;23.282;2022-11-22T00:57:13;94097.97;;;10.78;68.85
6393;BME280;3229;42.674;23.282;2022-11-22T00:59:40;94093.63;;;10.79;68.58
6393;BME280;3229;42.674;23.282;2022-11-22T01:02:07;94092.03;;;10.78;68.78
6393;BME280;3229;42.674;23.282;2022-11-22T01:04:33;94081.94;;;10.68;69.00
6393;BME280;3229;42.674;23.282;2022-11-22T01:07:00;94097.31;;;10.76;68.99
6393;BME280;3229;42.674;23.282;2022-11-22T01:09:27;94095.72;;;10.75;68.88
6393;BME280;3229;42.674;23.282;2022-11-22T01:11:54;94075.31;;;10.58;68.78
6393;BME280;3229;42.674;23.282;2022-11-22T01:14:22;94088.53;;;10.71;68.85
6393;BME280;3229;42.674;23.282;2022-11-22T01:16:49;94100.84;;;10.75;68.85
6393;BME280;3229;42.674;23.282;2022-11-22T01:19:17;94098.28;;;10.75;68.86
6393;BME280;3229;42.674;23.282;2022-11-22T01:21:44;94096.53;;;10.76;68.78
6393;BME280;3229;42.674;23.282;2022-11-22T01:24:11;94079.84;;;10.64;68.80
6393;BME280;3229;42.674;23.282;2022-11-22T01:26:38;94096.66;;;10.74;68.90
6393;BME280;3229;42.674;23.282;2022-11-22T01:29:05;94092.16;;;10.68;69.08
6393;BME280;3229;42.674;23.282;2022-11-22T01:31:34;94088.66;;;10.69;69.00
6393;BME280;3229;42.674;23.282;2022-11-22T01:34:04;94088.03;;;10.67;68.99
6393;BME280;3229;42.674;23.282;2022-11-22T01:36:31;94074.06;;;10.62;69.05
6393;BME280;3229;42.674;23.282;2022-11-22T01:38:58;94077.88;;;10.58;68.95
6393;BME280;3229;42.674;23.282;2022-11-22T01:41:25;94060.09;;;10.48;68.94
6393;BME280;3229;42.674;23.282;2022-11-22T01:43:52;94079.81;;;10.55;69.27
6393;BME280;3229;42.674;23.282;2022-11-22T01:46:27;94066.63;;;10.42;69.07
6393;BME280;3229;42.674;23.282;2022-11-22T01:49:00;94078.97;;;10.47;69.45
6393;BME280;3229;42.674;23.282;2022-11-22T01:51:32;94050.41;;;10.25;69.32
6393;BME280;3229;42.674;23.282;2022-11-22T01:54:05;94081.31;;;10.40;69.08
6393;BME280;3229;42.674;23.282;2022-11-22T01:56:35;94069.94;;;10.35;69.56
6393;BME280;3229;42.674;23.282;2022-11-22T01:59:05;94076.97;;;10.33;69.29
6393;BME280;3229;42.674;23.282;2022-11-22T02:01:34;94080.78;;;10.28;69.55
6393;BME280;3229;42.674;23.282;2022-11-22T02:04:04;94088.75;;;10.25;69.59
6393;BME280;3229;42.674;23.282;2022-11-22T02:06:37;94092.34;;;10.23;69.31
6393;BME280;3229;42.674;23.282;2022-11-22T02:09:09;94091.06;;;10.19;69.40
6393;BME280;3229;42.674;23.282;2022-11-22T02:11:39;94098.25;;;10.15;69.63
6393;BME280;3229;42.674;23.282;2022-11-22T02:14:08;94092.47;;;10.13;69.58
6393;BME280;3229;42.674;23.282;2022-11-22T02:16:36;94089.41;;;10.10;69.80
6393;BME280;3229;42.674;23.282;2022-11-22T02:19:09;94080.09;;;10.00;69.71
6393;BME280;3229;42.674;23.282;2022-11-22T02:21:40;94089.22;;;10.03;69.60
6393;BME280;3229;42.674;23.282;2022-11-22T02:24:12;94088.75;;;10.08;69.86
6393;BME280;3229;42.674;23.282;2022-11-22T02:26:43;94070.81;;;9.99;69.81
6393;BME280;3229;42.674;23.282;2022-11-22T02:29:10;94081.56;;;10.03;69.71
6393;BME280;3229;42.674;23.282;2022-11-22T02:31:40;94086.38;;;10.06;69.90
6393;BME280;3229;42.674;23.282;2022-11-22T02:34:08;94072.88;;;9.96;69.78
6393;BME280;3229;42.674;23.282;2022-11-22T02:36:38;94085.84;;;10.02;70.11
6393;BME280;3229;42.674;23.282;2022-11-22T02:39:08;94080.09;;;10.00;70.13
6393;BME280;3229;42.674;23.282;2022-11-22T02:41:36;94088.88;;;9.98;70.08
6393;BME280;3229;42.674;23.282;2022-11-22T02:44:05;94082.28;;;9.95;70.07
6393;BME280;3229;42.674;23.282;2022-11-22T02:46:33;94080.97;;;9.91;70.37
6393;BME280;3229;42.674;23.282;2022-11-22T02:49:00;94077.00;;;9.89;70.21
6393;BME280;3229;42.674;23.282;2022-11-22T02:51:26;94078.06;;;9.86;70.25
6393;BME280;3229;42.674;23.282;2022-11-22T02:53:53;94052.41;;;9.70;70.46
6393;BME280;3229;42.674;23.282;2022-11-22T02:56:21;94065.09;;;9.79;70.24
6393;BME280;3229;42.674;23.282;2022-11-22T02:58:48;94076.25;;;9.78;70.25
6393;BME280;3229;42.674;23.282;2022-11-22T03:01:16;94076.69;;;9.74;70.38
6393;BME280;3229;42.674;23.282;2022-11-22T03:03:43;94074.94;;;9.74;70.36
6393;BME280;3229;42.674;23.282;2022-11-22T03:06:10;94071.75;;;9.72;70.32
6393;BME280;3229;42.674;23.282;2022-11-22T03:08:37;94067.09;;;9.68;70.46
6393;BME280;3229;42.674;23.282;2022-11-22T03:11:03;94062.28;;;9.65;70.41
6393;BME280;3229;42.674;23.282;2022-11-22T03:13:30;94062.28;;;9.65;70.51
6393;BME280;3229;42.674;23.282;2022-11-22T03:15:57;94066.72;;;9.63;70.46
6393;BME280;3229;42.674;23.282;2022-11-22T03:18:25;94060.97;;;9.61;70.54
6393;BME280;3229;42.674;23.282;2022-11-22T03:20:52;94074.81;;;9.58;70.76
6393;BME280;3229;42.674;23.282;2022-11-22T03:23:19;94064.13;;;9.54;70.70
6393;BME280;3229;42.674;23.282;2022-11-22T03:25:46;94073.50;;;9.54;70.58
6393;BME280;3229;42.674;23.282;2022-11-22T03:28:12;94066.00;;;9.52;70.83
6393;BME280;3229;42.674;23.282;2022-11-22T03:30:39;94066.16;;;9.51;70.87
6393;BME280;3229;42.674;23.282;2022-11-22T03:33:06;94066.44;;;9.48;70.40
6393;BME280;3229;42.674;23.282;2022-11-22T03:35:35;94038.38;;;9.30;70.64
6393;BME280;3229;42.674;23.282;2022-11-22T03:38:02;94062.72;;;9.42;70.86
6393;BME280;3229;42.674;23.282;2022-11-22T03:40:29;94059.38;;;9.42;70.88
6393;BME280;3229;42.674;23.282;2022-11-22T03:42:58;94058.88;;;9.38;70.74
6393;BME280;3229;42.674;23.282;2022-11-22T03:45:26;94060.75;;;9.36;70.96
6393;BME280;3229;42.674;23.282;2022-11-22T03:47:53;94063.59;;;9.33;70.88
6393;BME280;3229;42.674;23.282;2022-11-22T03:50:21;94062.13;;;9.30;70.93
6393;BME280;3229;42.674;23.282;2022-11-22T03:52:49;94058.44;;;9.25;70.99
6393;BME280;3229;42.674;23.282;2022-11-22T03:55:16;94065.75;;;9.28;70.97
6393;BME280;3229;42.674;23.282;2022-11-22T03:57:43;94067.16;;;9.22;71.14
6393;BME280;3229;42.674;23.282;2022-11-22T04:00:11;94071.97;;;9.25;71.24
6393;BME280;3229;42.674;23.282;2022-11-22T04:02:38;94069.88;;;9.21;71.25
6393;BME280;3229;42.674;23.282;2022-11-22T04:05:05;94071.63;;;9.20;71.11
6393;BME280;3229;42.674;23.282;2022-11-22T04:07:32;94084.38;;;9.20;71.30
6393;BME280;3229;42.674;23.282;2022-11-22T04:10:00;94080.34;;;9.18;71.00
6393;BME280;3229;42.674;23.282;2022-11-22T04:12:28;94083.06;;;9.16;71.30
6393;BME280;3229;42.674;23.282;2022-11-22T04:14:55;94089.06;;;9.15;71.10
6393;BME280;3229;42.674;23.282;2022-11-22T04:17:33;94097.03;;;9.12;71.14
6393;BME280;3229;42.674;23.282;2022-11-22T04:20:11;94092.22;;;9.09;71.31
6393;BME280;3229;42.674;23.282;2022-11-22T04:22:56;94075.50;;;8.97;71.37
6393;BME280;3229;42.674;23.282;2022-11-22T04:25:25;94083.03;;;8.98;71.27
6393;BME280;3229;42.674;23.282;2022-11-22T04:27:53;94083.31;;;8.95;71.18
6393;BME280;3229;42.674;23.282;2022-11-22T04:30:20;94098.69;;;9.03;71.33
6393;BME280;3229;42.674;23.282;2022-11-22T04:33:07;94098.97;;;9.00;71.20
6393;BME280;3229;42.674;23.282;2022-11-22T04:35:32;94095.91;;;8.97;71.17
6393;BME280;3229;42.674;23.282;2022-11-22T04:38:00;94112.53;;;9.01;71.16
6393;BME280;3229;42.674;23.282;2022-11-22T04:40:28;94104.50;;;8.96;71.58
6393;BME280;3229;42.674;23.282;2022-11-22T04:42:55;94101.97;;;8.96;71.52
6393;BME280;3229;42.674;23.282;2022-11-22T04:45:39;94107.06;;;8.96;71.41
6393;BME280;3229;42.674;23.282;2022-11-22T04:48:06;94116.47;;;8.95;71.58
6393;BME280;3229;42.674;23.282;2022-11-22T04:50:34;94119.97;;;8.94;71.31
6393;BME280;3229;42.674;23.282;2022-11-22T04:53:18;94123.44;;;8.93;71.50
6393;BME280;3229;42.674;23.282;2022-11-22T04:55:47;94127.88;;;8.91;71.56
6393;BME280;3229;42.674;23.282;2022-11-22T04:58:18;94127.88;;;8.91;71.37
6393;BME280;3229;42.674;23.282;2022-11-22T05:00:51;94127.19;;;8.89;71.54
6393;BME280;3229;42.674;23.282;2022-11-22T05:03:18;94127.13;;;8.81;71.50
6393;BME280;3229;42.674;23.282;2022-11-22T05:05:45;94135.16;;;8.86;71.63
6393;BME280;3229;42.674;23.282;2022-11-22T05:08:12;94146.94;;;8.87;71.41
6393;BME280;3229;42.674;23.282;2022-11-22T05:10:39;94137.69;;;8.86;71.55
6393;BME280;3229;42.674;23.282;2022-11-22T05:13:28;94131.13;;;8.84;71.63
6393;BME280;3229;42.674;23.282;2022-11-22T05:15:56;94132.09;;;8.83;71.86
6393;BME280;3229;42.674;23.282;2022-11-22T05:18:24;94141.22;;;8.85;71.56
6393;BME280;3229;42.674;23.282;2022-11-22T05:20:51;94142.28;;;8.83;71.66
6393;BME280;3229;42.674;23.282;2022-11-22T05:23:21;94140.38;;;8.85;71.81
6393;BME280;3229;42.674;23.282;2022-11-22T05:26:06;94146.56;;;8.82;71.58
6393;BME280;3229;42.674;23.282;2022-11-22T05:28:36;94135.56;;;8.82;71.84
6393;BME280;3229;42.674;23.282;2022-11-22T05:31:08;94139.88;;;8.81;71.58
6393;BME280;3229;42.674;23.282;2022-11-22T05:33:36;94129.53;;;8.83;71.75
6393;BME280;3229;42.674;23.282;2022-11-22T05:36:06;94137.97;;;8.83;71.81
6393;BME280;3229;42.674;23.282;2022-11-22T05:38:34;94123.91;;;8.79;71.75
6393;BME280;3229;42.674;23.282;2022-11-22T05:41:02;94100.09;;;8.61;71.92
6393;BME280;3229;42.674;23.282;2022-11-22T05:43:30;94138.66;;;8.85;71.91
6393;BME280;3229;42.674;23.282;2022-11-22T05:46:05;94142.81;;;8.86;71.62
6393;BME280;3229;42.674;23.282;2022-11-22T05:48:32;94141.06;;;8.87;71.74
6393;BME280;3229;42.674;23.282;2022-11-22T05:51:02;94141.59;;;8.90;71.81
6393;BME280;3229;42.674;23.282;2022-11-22T05:53:29;94143.97;;;8.92;71.68
6393;BME280;3229;42.674;23.282;2022-11-22T05:56:02;94142.91;;;8.94;71.41
6393;BME280;3229;42.674;23.282;2022-11-22T05:58:29;94139.25;;;8.97;71.61
6393;BME280;3229;42.674;23.282;2022-11-22T06:01:00;94124.91;;;8.96;71.55
6393;BME280;3229;42.674;23.282;2022-11-22T06:03:28;94136.81;;;9.05;71.58
6393;BME280;3229;42.674;23.282;2022-11-22T06:05:56;94129.94;;;9.05;71.19
6393;BME280;3229;42.674;23.282;2022-11-22T06:08:22;94137.84;;;9.12;71.30
6393;BME280;3229;42.674;23.282;2022-11-22T06:10:49;94139.63;;;9.29;71.25
6393;BME280;3229;42.674;23.282;2022-11-22T06:13:16;94147.03;;;9.50;70.91
6393;BME280;3229;42.674;23.282;2022-11-22T06:15:43;94161.31;;;9.79;71.12
6393;BME280;3229;42.674;23.282;2022-11-22T06:18:10;94158.25;;;10.11;71.91
6393;BME280;3229;42.674;23.282;2022-11-22T06:20:38;94163.88;;;10.59;76.58
6393;BME280;3229;42.674;23.282;2022-11-22T06:23:04;94157.25;;;11.08;81.40
6393;BME280;3229;42.674;23.282;2022-11-22T06:25:31;94152.94;;;11.59;82.65
6393;BME280;3229;42.674;23.282;2022-11-22T06:27:58;94146.44;;;12.14;82.41
6393;BME280;3229;42.674;23.282;2022-11-22T06:30:25;94140.44;;;12.70;81.82
6393;BME280;3229;42.674;23.282;2022-11-22T06:32:52;94145.41;;;13.27;80.21
6393;BME280;3229;42.674;23.282;2022-11-22T06:35:19;94131.97;;;13.79;78.33
6393;BME280;3229;42.674;23.282;2022-11-22T06:37:48;94130.63;;;14.29;76.49
6393;BME280;3229;42.674;23.282;2022-11-22T06:40:15;94125.91;;;14.86;74.85
6393;BME280;3229;42.674;23.282;2022-11-22T06:42:43;94146.00;;;15.41;73.32
6393;BME280;3229;42.674;23.282;2022-11-22T06:45:10;94156.84;;;15.66;72.33
6393;BME280;3229;42.674;23.282;2022-11-22T06:47:37;94172.69;;;16.06;70.67
6393;BME280;3229;42.674;23.282;2022-11-22T06:50:05;94170.66;;;16.44;68.55
6393;BME280;3229;42.674;23.282;2022-11-22T06:52:32;94167.47;;;16.92;67.14
6393;BME280;3229;42.674;23.282;2022-11-22T06:55:00;94163.72;;;17.36;65.84
6393;BME280;3229;42.674;23.282;2022-11-22T06:57:27;94163.13;;;17.82;64.75
6393;BME280;3229;42.674;23.282;2022-11-22T06:59:54;94166.19;;;18.25;63.39
6393;BME280;3229;42.674;23.282;2022-11-22T07:02:20;94162.41;;;18.67;62.13
6393;BME280;3229;42.674;23.282;2022-11-22T07:04:47;94165.38;;;19.11;60.97
6393;BME280;3229;42.674;23.282;2022-11-22T07:07:14;94173.63;;;19.52;60.06
6393;BME280;3229;42.674;23.282;2022-11-22T07:09:41;94176.47;;;19.89;58.79
6393;BME280;3229;42.674;23.282;2022-11-22T07:12:10;94163.09;;;20.24;58.04
6393;BME280;3229;42.674;23.282;2022-11-22T07:14:36;94162.69;;;20.59;56.92
6393;BME280;3229;42.674;23.282;2022-11-22T07:17:03;94171.41;;;20.89;55.84
6393;BME280;3229;42.674;23.282;2022-11-22T07:19:30;94160.31;;;21.19;54.99
6393;BME280;3229;42.674;23.282;2022-11-22T07:21:57;94144.56;;;21.39;54.46
6393;BME280;3229;42.674;23.282;2022-11-22T07:24:24;94160.34;;;21.74;53.33
6393;BME280;3229;42.674;23.282;2022-11-22T07:26:51;94147.81;;;21.83;53.21
6393;BME280;3229;42.674;23.282;2022-11-22T07:29:19;94162.16;;;22.03;52.67
6393;BME280;3229;42.674;23.282;2022-11-22T07:31:46;94148.34;;;22.03;52.71
6393;BME280;3229;42.674;23.282;2022-11-22T07:34:13;94155.38;;;21.84;52.44
6393;BME280;3229;42.674;23.282;2022-11-22T07:36:41;94149.50;;;21.59;52.00
6393;BME280;3229;42.674;23.282;2022-11-22T07:39:07;94134.63;;;21.29;52.06
6393;BME280;3229;42.674;23.282;2022-11-22T07:41:34;94135.13;;;21.01;51.94
6393;BME280;3229;42.674;23.282;2022-11-22T07:44:01;94138.66;;;20.63;51.98
6393;BME280;3229;42.674;23.282;2022-11-22T07:46:29;94139.16;;;20.22;51.82
6393;BME280;3229;42.674;23.282;2022-11-22T07:48:58;94132.03;;;19.79;52.15
6393;BME280;3229;42.674;23.282;2022-11-22T07:51:26;94135.97;;;19.37;52.08
6393;BME280;3229;42.674;23.282;2022-11-22T07:53:53;94160.19;;;19.11;52.48
6393;BME280;3229;42.674;23.282;2022-11-22T07:56:20;94162.03;;;18.84;52.46
6393;BME280;3229;42.674;23.282;2022-11-22T07:58:47;94158.22;;;18.60;52.27
6393;BME280;3229;42.674;23.282;2022-11-22T08:01:15;94155.44;;;18.35;52.61
6393;BME280;3229;42.674;23.282;2022-11-22T08:03:44;94149.28;;;18.22;52.58
6393;BME280;3229;42.674;23.282;2022-11-22T08:06:12;94134.09;;;17.99;52.74
6393;BME280;3229;42.674;23.282;2022-11-22T08:08:39;94142.47;;;17.88;52.87
6393;BME280;3229;42.674;23.282;2022-11-22T08:11:06;94140.63;;;17.75;52.86
6393;BME280;3229;42.674;23.282;2022-11-22T08:13:34;94130.41;;;17.54;52.89
6393;BME280;3229;42.674;23.282;2022-11-22T08:16:02;94126.56;;;17.37;52.97
6393;BME280;3229;42.674;23.282;2022-11-22T08:18:29;94134.22;;;17.17;52.95
6393;BME280;3229;42.674;23.282;2022-11-22T08:21:08;94125.56;;;16.96;53.01
6393;BME280;3229;42.674;23.282;2022-11-22T08:23:36;94116.13;;;16.75;53.21
6393;BME280;3229;42.674;23.282;2022-11-22T08:26:04;94120.47;;;16.75;53.17
6393;BME280;3229;42.674;23.282;2022-11-22T08:28:31;94107.66;;;16.88;82.58
6393;BME280;3229;42.674;23.282;2022-11-22T08:31:00;94120.94;;;17.26;81.95
6393;BME280;3229;42.674;23.282;2022-11-22T08:33:29;94112.13;;;17.69;80.44
6393;BME280;3229;42.674;23.282;2022-11-22T08:35:56;94120.78;;;18.02;76.88
6393;BME280;3229;42.674;23.282;2022-11-22T08:38:24;94067.81;;;17.78;72.93
6393;BME280;3229;42.674;23.282;2022-11-22T08:40:51;94105.84;;;18.04;70.54
6393;BME280;3229;42.674;23.282;2022-11-22T08:43:18;94091.31;;;17.90;68.56
6393;BME280;3229;42.674;23.282;2022-11-22T08:45:46;94097.28;;;17.84;67.36
6393;BME280;3229;42.674;23.282;2022-11-22T08:48:14;94070.34;;;17.59;65.79
6393;BME280;3229;42.674;23.282;2022-11-22T08:50:49;94047.19;;;17.30;63.97
6393;BME280;3229;42.674;23.282;2022-11-22T08:53:22;94083.63;;;17.42;63.47
6393;BME280;3229;42.674;23.282;2022-11-22T08:55:50;94066.03;;;17.18;62.86
6393;BME280;3229;42.674;23.282;2022-11-22T08:58:17;94085.13;;;17.17;62.05
6393;BME280;3229;42.674;23.282;2022-11-22T09:00:44;94079.69;;;17.05;61.17
6393;BME280;3229;42.674;23.282;2022-11-22T09:03:11;94081.63;;;16.90;60.44
6393;BME280;3229;42.674;23.282;2022-11-22T09:05:38;94087.53;;;16.84;59.96
6393;BME280;3229;42.674;23.282;2022-11-22T09:08:05;94071.16;;;16.70;59.42
6393;BME280;3229;42.674;23.282;2022-11-22T09:10:32;94004.59;;;16.24;58.91
6393;BME280;3229;42.674;23.282;2022-11-22T09:13:03;94080.03;;;16.61;58.53
6393;BME280;3229;42.674;23.282;2022-11-22T09:15:30;94079.25;;;16.60;58.30
6393;BME280;3229;42.674;23.282;2022-11-22T09:18:02;94077.03;;;16.57;57.82
6393;BME280;3229;42.674;23.282;2022-11-22T09:20:29;94069.84;;;16.46;57.71
6393;BME280;3229;42.674;23.282;2022-11-22T09:22:56;94076.38;;;16.48;57.48
6393;BME280;3229;42.674;23.282;2022-11-22T09:25:22;94076.78;;;16.45;57.29
6393;BME280;3229;42.674;23.282;2022-11-22T09:27:49;94076.53;;;16.40;57.13
6393;BME280;3229;42.674;23.282;2022-11-22T09:30:17;94063.03;;;16.38;56.90
6393;BME280;3229;42.674;23.282;2022-11-22T09:32:46;94061.63;;;16.36;56.89
6393;BME280;3229;42.674;23.282;2022-11-22T09:35:13;94063.22;;;16.37;56.68
6393;BME280;3229;42.674;23.282;2022-11-22T09:37:41;94063.41;;;16.35;56.62
6393;BME280;3229;42.674;23.282;2022-11-22T09:40:09;94061.81;;;16.34;56.62
6393;BME280;3229;42.674;23.282;2022-11-22T09:42:51;94045.53;;;16.34;56.49
6393;BME280;3229;42.674;23.282;2022-11-22T09:45:46;94053.31;;;16.40;56.28
6393;BME280;3229;42.674;23.282;2022-11-22T09:48:27;94039.81;;;16.38;56.15
6393;BME280;3229;42.674;23.282;2022-11-22T09:51:00;94053.50;;;16.39;56.08
6393;BME280;3229;42.674;23.282;2022-11-22T09:53:33;94037.56;;;16.28;56.23
6393;BME280;3229;42.674;23.282;2022-11-22T09:56:07;94043.53;;;16.29;56.10
6393;BME280;3229;42.674;23.282;2022-11-22T09:58:39;94037.56;;;16.28;56.23
6393;BME280;3229;42.674;23.282;2022-11-22T10:01:14;94025.38;;;16.16;56.14
6393;BME280;3229;42.674;23.282;2022-11-22T10:03:46;94032.91;;;16.17;55.89
6393;BME280;3229;42.674;23.282;2022-11-22T10:06:20;94040.88;;;16.22;55.89
6393;BME280;3229;42.674;23.282;2022-11-22T10:08:56;94037.50;;;16.22;55.77
6393;BME280;3229;42.674;23.282;2022-11-22T10:11:32;94041.94;;;16.28;55.54
6393;BME280;3229;42.674;23.282;2022-11-22T10:14:04;94023.47;;;16.31;55.62
6393;BME280;3229;42.674;23.282;2022-11-22T10:16:40;94010.97;;;16.28;55.43
6393;BME280;3229;42.674;23.282;2022-11-22T10:19:11;94013.22;;;16.38;55.42
6393;BME280;3229;42.674;23.282;2022-11-22T10:21:41;93996.31;;;16.35;55.27
6393;BME280;3229;42.674;23.282;2022-11-22T10:24:14;94006.91;;;16.47;55.13
6393;BME280;3229;42.674;23.282;2022-11-22T10:26:42;93979.47;;;16.39;54.96
6393;BME280;3229;42.674;23.282;2022-11-22T10:29:26;93987.09;;;16.61;54.94
6393;BME280;3229;42.674;23.282;2022-11-22T10:32:00;93988.13;;;16.66;54.59
6393;BME280;3229;42.674;23.282;2022-11-22T10:34:38;93994.31;;;16.72;54.50
6393;BME280;3229;42.674;23.282;2022-11-22T10:37:15;93974.69;;;16.77;54.32
6393;BME280;3229;42.674;23.282;2022-11-22T10:39:57;93974.69;;;16.77;54.25
6393;BME280;3229;42.674;23.282;2022-11-22T10:42:37;93991.44;;;16.88;53.98
6393;BME280;3229;42.674;23.282;2022-11-22T10:45:13;93962.53;;;16.71;54.08
6393;BME280;3229;42.674;23.282;2022-11-22T10:47:51;93964.75;;;16.74;54.07
6393;BME280;3229;42.674;23.282;2022-11-22T10:50:26;93964.50;;;16.69;54.16
6393;BME280;3229;42.674;23.282;2022-11-22T10:52:59;93952.34;;;16.56;54.34
6393;BME280;3229;42.674;23.282;2022-11-22T10:55:40;93946.53;;;16.48;54.48
6393;BME280;3229;42.674;23.282;2022-11-22T10:58:16;93950.06;;;16.40;54.48
6393;BME280;3229;42.674;23.282;2022-11-22T11:00:49;93947.06;;;16.30;54.71
6393;BME280;3229;42.674;23.282;2022-11-22T11:03:26;93966.53;;;16.33;54.72
6393;BME280;3229;42.674;23.282;2022-11-22T11:06:00;93952.75;;;16.19;55.09
6393;BME280;3229;42.674;23.282;2022-11-22T11:08:34;93966.84;;;16.16;55.13
6393;BME280;3229;42.674;23.282;2022-11-22T11:11:03;93942.34;;;16.05;55.33
6393;BME280;3229;42.674;23.282;2022-11-22T11:13:32;93954.59;;;15.97;55.42
6393;BME280;3229;42.674;23.282;2022-11-22T11:16:04;93941.84;;;15.89;55.61
6393;BME280;3229;42.674;23.282;2022-11-22T11:18:39;93949.13;;;15.78;55.59
6393;BME280;3229;42.674;23.282;2022-11-22T11:21:11;93952.06;;;15.75;55.65
6393;BME280;3229;42.674;23.282;2022-11-22T11:23:38;93960.56;;;15.69;55.90
6393;BME280;3229;42.674;23.282;2022-11-22T11:26:20;93959.50;;;15.64;55.90
6393;BME280;3229;42.674;23.282;2022-11-22T11:28:48;93942.03;;;15.59;56.04
6393;BME280;3229;42.674;23.282;2022-11-22T11:31:15;93925.81;;;15.37;56.11
6393;BME280;3229;42.674;23.282;2022-11-22T11:33:45;93937.19;;;15.49;56.12
6393;BME280;3229;42.674;23.282;2022-11-22T11:36:15;93914.69;;;15.37;55.92
6393;BME280;3229;42.674;23.282;2022-11-22T11:38:50;93931.91;;;15.36;56.49
6393;BME280;3229;42.674;23.282;2022-11-22T11:41:21;93917.94;;;15.24;56.57
6393;BME280;3229;42.674;23.282;2022-11-22T11:43:49;93926.50;;;15.24;56.49
6393;BME280;3229;42.674;23.282;2022-11-22T11:46:18;93910.78;;;15.19;56.64
6393;BME280;3229;42.674;23.282;2022-11-22T11:48:47;93868.50;;;14.86;56.82
6393;BME280;3229;42.674;23.282;2022-11-22T11:51:17;93874.88;;;14.90;56.84
6393;BME280;3229;42.674;23.282;2022-11-22T11:53:52;93909.06;;;15.05;56.92
6393;BME280;3229;42.674;23.282;2022-11-22T11:56:30;93916.56;;;15.00;57.22
6393;BME280;3229;42.674;23.282;2022-11-22T11:59:05;93872.09;;;14.70;57.16
6393;BME280;3229;42.674;23.282;2022-11-22T12:01:34;93879.03;;;14.69;57.31
6393;BME280;3229;42.674;23.282;2022-11-22T12:04:05;93915.78;;;14.85;57.41
6393;BME280;3229;42.674;23.282;2022-11-22T12:06:32;93923.09;;;14.81;57.73
6393;BME280;3229;42.674;23.282;2022-11-22T12:09:00;93925.25;;;14.77;57.70
6393;BME280;3229;42.674;23.282;2022-11-22T12:11:39;93899.78;;;14.68;57.80
6393;BME280;3229;42.674;23.282;2022-11-22T12:14:11;93913.09;;;14.71;58.05
6393;BME280;3229;42.674;23.282;2022-11-22T12:16:40;93858.31;;;14.41;58.25
6393;BME280;3229;42.674;23.282;2022-11-22T12:19:19;93891.13;;;14.54;58.25
6393;BME280;3229;42.674;23.282;2022-11-22T12:21:55;93890.41;;;14.60;58.44
6393;BME280;3229;42.674;23.282;2022-11-22T12:24:26;93884.19;;;14.54;58.53
6393;BME280;3229;42.674;23.282;2022-11-22T12:26:54;93873.66;;;14.49;58.85
6393;BME280;3229;42.674;23.282;2022-11-22T12:29:22;93856.03;;;14.31;58.79
6393;BME280;3229;42.674;23.282;2022-11-22T12:31:52;93881.44;;;14.41;59.23
6393;BME280;3229;42.674;23.282;2022-11-22T12:34:26;93871.91;;;14.35;59.44
6393;BME280;3229;42.674;23.282;2022-11-22T12:36:58;93855.00;;;14.26;60.02
6393;BME280;3229;42.674;23.282;2022-11-22T12:39:27;93844.56;;;14.13;60.10
6393;BME280;3229;42.674;23.282;2022-11-22T12:42:00;93863.25;;;14.21;60.35
6393;BME280;3229;42.674;23.282;2022-11-22T12:44:33;93866.34;;;14.17;60.54
6393;BME280;3229;42.674;23.282;2022-11-22T12:47:06;93861.75;;;14.12;60.73
6393;BME280;3229;42.674;23.282;2022-11-22T12:49:40;93863.09;;;14.08;61.03
6393;BME280;3229;42.674;23.282;2022-11-22T12:52:14;93840.13;;;13.92;61.65
6393;BME280;3229;42.674;23.282;2022-11-22T12:54:50;93858.84;;;14.00;61.61
6393;BME280;3229;42.674;23.282;2022-11-22T12:57:22;93858.19;;;13.98;61.80
6393;BME280;3229;42.674;23.282;2022-11-22T12:59:57;93856.34;;;13.92;62.02
6393;BME280;3229;42.674;23.282;2022-11-22T13:02:30;93863.88;;;13.94;62.21
6393;BME280;3229;42.674;23.282;2022-11-22T13:05:03;93849.28;;;13.79;62.74
6393;BME280;3229;42.674;23.282;2022-11-22T13:07:44;93820.75;;;13.60;62.24
6393;BME280;3229;42.674;23.282;2022-11-22T13:10:21;93835.44;;;13.80;62.59
6393;BME280;3229;42.674;23.282;2022-11-22T13:12:53;93848.94;;;13.83;62.96
6393;BME280;3229;42.674;23.282;2022-11-22T13:15:26;93832.81;;;13.74;63.23
6393;BME280;3229;42.674;23.282;2022-11-22T13:17:54;93835.19;;;13.75;63.28
6393;BME280;3229;42.674;23.282;2022-11-22T13:20:25;93841.91;;;13.76;63.41
6393;BME280;3229;42.674;23.282;2022-11-22T13:23:08;93843.09;;;13.74;63.93
6393;BME280;3229;42.674;23.282;2022-11-22T13:25:56;93850.34;;;13.70;63.86
6393;BME280;3229;42.674;23.282;2022-11-22T13:28:27;93843.78;;;13.68;64.23